createdAt,value
2018-09-10T00:00:19.939Z,11.07
2018-09-10T00:02:48.779Z,10.93
2018-09-10T00:05:17.628Z,10.83
2018-09-10T00:07:46.540Z,9.63
2018-09-10T00:10:15.380Z,10.93
2018-09-10T00:12:44.359Z,10.30
2018-09-10T00:15:13.520Z,11.10
2018-09-10T00:17:42.427Z,11.10
2018-09-10T00:20:11.273Z,11.03
2018-09-10T00:22:40.144Z,11.63
2018-09-10T00:25:09.441Z,11.10
2018-09-10T00:27:38.368Z,11.20
2018-09-10T00:30:07.384Z,11.60
2018-09-10T00:32:36.243Z,10.87
2018-09-10T00:35:05.135Z,10.93
2018-09-10T00:37:34.016Z,10.93
2018-09-10T00:40:02.836Z,10.97
2018-09-10T00:42:31.655Z,11.20
2018-09-10T00:45:00.556Z,11.07
2018-09-10T00:47:29.407Z,11.20
2018-09-10T00:49:58.247Z,10.97
2018-09-10T00:52:27.167Z,12.13
2018-09-10T00:54:56.087Z,11.73
2018-09-10T00:57:24.937Z,11.07
2018-09-10T00:59:53.860Z,11.87
2018-09-10T01:02:22.752Z,11.47
2018-09-10T01:04:51.596Z,9.77
2018-09-10T01:07:20.480Z,10.10
2018-09-10T01:09:49.345Z,10.13
2018-09-10T01:12:18.207Z,10.33
2018-09-10T01:14:47.161Z,10.60
2018-09-10T01:17:16.033Z,10.03
2018-09-10T01:19:44.888Z,10.20
2018-09-10T01:22:13.792Z,10.00
2018-09-10T01:24:42.647Z,9.87
2018-09-10T01:27:11.535Z,10.07
2018-09-10T01:29:40.400Z,10.10
2018-09-10T01:32:09.233Z,9.90
2018-09-10T01:34:43.363Z,9.57
2018-09-10T01:37:12.249Z,10.20
2018-09-10T01:39:41.118Z,9.43
2018-09-10T01:42:10.017Z,9.50
2018-09-10T01:44:38.850Z,9.63
2018-09-10T01:47:08.361Z,10.13
2018-09-10T01:49:37.312Z,9.73
2018-09-10T01:52:06.185Z,9.50
2018-09-10T01:54:35.060Z,10.00
2018-09-10T01:57:03.960Z,9.67
2018-09-10T01:59:32.795Z,9.40
2018-09-10T02:02:01.653Z,9.50
2018-09-10T02:04:30.543Z,9.77
2018-09-10T02:06:59.380Z,9.67
2018-09-10T02:09:28.227Z,9.13
2018-09-10T02:11:57.214Z,8.47
2018-09-10T02:14:26.063Z,9.30
2018-09-10T02:16:54.942Z,9.30
2018-09-10T02:19:23.827Z,9.50
2018-09-10T02:21:52.651Z,8.57
2018-09-10T02:24:21.493Z,8.40
2018-09-10T02:26:50.444Z,9.23
2018-09-10T02:29:19.400Z,8.20
2018-09-10T02:31:48.209Z,8.30
2018-09-10T02:34:17.148Z,8.27
2018-09-10T02:36:46.022Z,8.73
2018-09-10T02:39:14.854Z,7.67
2018-09-10T02:41:44.792Z,8.17
2018-09-10T02:44:14.573Z,8.20
2018-09-10T02:46:43.488Z,8.27
2018-09-10T02:49:12.433Z,7.53
2018-09-10T02:51:41.265Z,7.90
2018-09-10T02:54:10.110Z,8.03
2018-09-10T02:56:38.983Z,8.50
2018-09-10T02:59:07.825Z,7.53
2018-09-10T03:01:36.675Z,6.97
2018-09-10T03:04:05.607Z,8.17
2018-09-10T03:06:34.457Z,8.17
2018-09-10T03:09:03.589Z,8.63
2018-09-10T03:11:32.465Z,8.17
2018-09-10T03:14:01.356Z,8.27
2018-09-10T03:16:30.172Z,8.20
2018-09-10T03:18:59.040Z,7.77
2018-09-10T03:21:27.879Z,7.47
2018-09-10T03:23:56.792Z,7.50
2018-09-10T03:26:25.720Z,7.77
2018-09-10T03:28:54.597Z,8.10
2018-09-10T03:31:23.477Z,8.07
2018-09-10T03:33:52.363Z,8.20
2018-09-10T03:36:21.224Z,6.87
2018-09-10T03:38:50.050Z,7.60
2018-09-10T03:41:18.953Z,8.00
2018-09-10T03:43:47.770Z,6.97
2018-09-10T03:46:16.611Z,7.70
2018-09-10T03:48:45.493Z,7.57
2018-09-10T03:51:14.332Z,7.70
2018-09-10T03:53:43.171Z,7.57
2018-09-10T03:56:12.081Z,6.73
2018-09-10T03:58:40.922Z,7.17
2018-09-10T04:01:09.750Z,7.97
2018-09-10T04:03:38.645Z,7.87
2018-09-10T04:06:07.504Z,7.03
2018-09-10T04:08:36.363Z,6.80
2018-09-10T04:11:05.289Z,6.70
2018-09-10T04:13:34.135Z,6.97
2018-09-10T04:16:02.983Z,6.90
2018-09-10T04:18:31.947Z,6.60
2018-09-10T04:21:00.853Z,6.50
2018-09-10T04:23:29.724Z,6.93
2018-09-10T04:25:58.677Z,6.97
2018-09-10T04:28:27.547Z,6.57
2018-09-10T04:30:56.407Z,6.80
2018-09-10T04:33:25.457Z,7.00
2018-09-10T04:35:54.358Z,6.83
2018-09-10T04:38:23.341Z,6.53
2018-09-10T04:40:53.340Z,6.93
2018-09-10T04:43:22.312Z,6.30
2018-09-10T04:45:51.421Z,6.23
2018-09-10T04:48:20.820Z,6.77
2018-09-10T04:50:49.746Z,6.37
2018-09-10T04:53:18.840Z,6.13
2018-09-10T04:55:47.683Z,6.47
2018-09-10T04:58:16.608Z,6.67
2018-09-10T05:00:45.576Z,6.17
2018-09-10T05:03:14.805Z,6.77
2018-09-10T05:05:43.744Z,5.97
2018-09-10T05:08:13.227Z,6.17
2018-09-10T05:10:42.116Z,6.27
2018-09-10T05:13:10.960Z,6.63
2018-09-10T05:15:41.212Z,6.30
2018-09-10T05:18:10.114Z,6.40
2018-09-10T05:20:39.237Z,6.30
2018-09-10T05:23:08.199Z,6.20
2018-09-10T05:25:37.097Z,6.20
2018-09-10T05:28:05.966Z,6.30
2018-09-10T05:30:34.926Z,6.17
2018-09-10T05:33:03.920Z,6.67
2018-09-10T05:35:32.872Z,7.70
2018-09-10T05:38:01.753Z,7.40
2018-09-10T05:40:30.754Z,7.50
2018-09-10T05:42:59.592Z,6.80
2018-09-10T05:45:34.452Z,7.70
2018-09-10T05:48:03.315Z,8.03
2018-09-10T05:50:32.156Z,7.77
2018-09-10T05:53:01.106Z,8.03
2018-09-10T05:55:30.051Z,9.30
2018-09-10T05:57:58.938Z,9.57
2018-09-10T06:00:27.815Z,9.20
2018-09-10T06:02:57.208Z,9.37
2018-09-10T06:05:26.043Z,7.93
2018-09-10T06:07:55.025Z,7.77
2018-09-10T06:10:24.046Z,7.60
2018-09-10T06:12:52.984Z,7.73
2018-09-10T06:15:21.881Z,7.97
2018-09-10T06:17:50.843Z,7.43
2018-09-10T06:20:19.741Z,6.90
2018-09-10T06:22:48.671Z,8.40
2018-09-10T06:25:17.526Z,7.70
2018-09-10T06:27:46.373Z,9.63
2018-09-10T06:30:15.427Z,9.57
2018-09-10T06:32:44.476Z,9.07
2018-09-10T06:35:13.479Z,9.63
2018-09-10T06:37:42.336Z,9.23
2018-09-10T06:40:11.173Z,9.30
2018-09-10T06:42:40.209Z,8.47
2018-09-10T06:45:09.054Z,9.57
2018-09-10T06:47:37.982Z,8.80
2018-09-10T06:50:06.859Z,8.90
2018-09-10T06:52:35.721Z,8.93
2018-09-10T06:55:04.664Z,7.92
2018-09-10T06:57:33.579Z,8.20
2018-09-10T07:00:02.425Z,7.03
2018-09-10T07:02:31.311Z,6.92
2018-09-10T07:05:00.229Z,7.12
2018-09-10T07:07:29.047Z,7.10
2018-09-10T07:09:58.068Z,7.25
2018-09-10T07:12:26.927Z,7.20
2018-09-10T07:14:55.739Z,6.75
2018-09-10T07:17:24.643Z,7.28
2018-09-10T07:19:53.513Z,6.58
2018-09-10T07:22:22.341Z,6.33
2018-09-10T07:24:51.259Z,6.40
2018-09-10T07:27:20.118Z,5.53
2018-09-10T07:29:48.968Z,5.45
2018-09-10T07:32:18.001Z,5.37
2018-09-10T07:34:46.889Z,5.03
2018-09-10T07:37:15.732Z,5.72
2018-09-10T07:39:44.701Z,4.97
2018-09-10T07:42:13.565Z,4.95
2018-09-10T07:44:42.481Z,4.53
2018-09-10T07:47:11.489Z,5.03
2018-09-10T07:49:40.359Z,4.62
2018-09-10T07:52:09.185Z,4.70
2018-09-10T07:54:38.254Z,4.87
2018-09-10T07:57:07.075Z,4.08
2018-09-10T07:59:36.047Z,4.65
2018-09-10T08:02:04.919Z,4.70
2018-09-10T08:04:33.841Z,4.25
2018-09-10T08:07:02.749Z,4.80
2018-09-10T08:09:31.651Z,5.30
2018-09-10T08:12:00.511Z,4.83
2018-09-10T08:14:29.397Z,5.05
2018-09-10T08:16:58.392Z,5.12
2018-09-10T08:19:27.293Z,5.53
2018-09-10T08:21:56.175Z,4.92
2018-09-10T08:24:25.104Z,5.12
2018-09-10T08:26:53.921Z,5.12
2018-09-10T08:29:22.859Z,5.50
2018-09-10T08:31:51.827Z,4.53
2018-09-10T08:34:20.696Z,4.85
2018-09-10T08:36:49.820Z,4.72
2018-09-10T08:39:18.781Z,4.50
2018-09-10T08:41:47.712Z,4.85
2018-09-10T08:44:16.623Z,4.62
2018-09-10T08:46:45.641Z,4.42
2018-09-10T08:49:14.561Z,4.58
2018-09-10T08:51:43.463Z,4.70
2018-09-10T08:54:12.524Z,4.60
2018-09-10T08:56:41.380Z,5.33
2018-09-10T08:59:10.316Z,5.22
2018-09-10T09:01:39.243Z,4.90
2018-09-10T09:04:08.113Z,4.62
2018-09-10T09:06:36.947Z,4.75
2018-09-10T09:09:07.581Z,5.05
2018-09-10T09:11:36.468Z,4.92
2018-09-10T09:14:05.309Z,5.08
2018-09-10T09:16:34.192Z,4.75
2018-09-10T09:19:03.024Z,5.05
2018-09-10T09:21:31.854Z,4.40
2018-09-10T09:24:00.816Z,5.25
2018-09-10T09:26:29.823Z,4.25
2018-09-10T09:28:58.716Z,5.10
2018-09-10T09:31:27.725Z,4.85
2018-09-10T09:33:56.570Z,4.83
2018-09-10T09:36:30.573Z,4.70
2018-09-10T09:39:04.622Z,4.33
2018-09-10T09:41:38.639Z,4.78
2018-09-10T09:44:12.667Z,4.55
2018-09-10T09:46:41.606Z,4.05
2018-09-10T09:49:10.437Z,4.67
2018-09-10T09:51:39.261Z,5.05
2018-09-10T09:54:08.162Z,4.50
2018-09-10T09:56:37.039Z,4.42
2018-09-10T09:59:05.951Z,4.30
2018-09-10T10:01:40.794Z,4.00
2018-09-10T10:04:11.112Z,4.70
2018-09-10T10:06:39.907Z,4.33
2018-09-10T10:09:11.439Z,3.90
2018-09-10T10:11:40.842Z,4.53
2018-09-10T10:14:10.411Z,3.92
2018-09-10T10:16:39.423Z,4.22
2018-09-10T10:19:08.262Z,3.87
2018-09-10T10:21:37.251Z,4.00
2018-09-10T10:24:06.126Z,4.03
2018-09-10T10:26:35.103Z,4.50
2018-09-10T10:29:04.000Z,3.50
2018-09-10T10:31:33.234Z,3.70
2018-09-10T10:34:02.153Z,3.75
2018-09-10T10:36:31.093Z,4.10
2018-09-10T10:39:00.120Z,3.98
2018-09-10T10:41:29.114Z,3.77
2018-09-10T10:43:58.785Z,4.62
2018-09-10T10:46:27.620Z,4.12
2018-09-10T10:48:56.567Z,3.98
2018-09-10T10:51:25.505Z,3.87
2018-09-10T10:53:54.434Z,3.30
2018-09-10T10:56:23.196Z,3.42
2018-09-10T10:58:52.073Z,3.83
2018-09-10T11:01:20.936Z,3.65
2018-09-10T11:03:49.752Z,3.42
2018-09-10T11:06:18.696Z,3.72
2018-09-10T11:08:47.601Z,3.50
2018-09-10T11:11:16.442Z,3.85
2018-09-10T11:13:45.295Z,3.80
2018-09-10T11:16:14.134Z,3.50
2018-09-10T11:18:42.950Z,4.15
2018-09-10T11:21:11.833Z,3.62
2018-09-10T11:23:40.656Z,3.85
2018-09-10T11:26:09.493Z,3.50
2018-09-10T11:28:38.356Z,3.70
2018-09-10T11:31:07.218Z,3.47
2018-09-10T11:33:36.066Z,3.83
2018-09-10T11:36:04.976Z,3.42
2018-09-10T11:38:33.820Z,3.47
2018-09-10T11:41:02.657Z,3.52
2018-09-10T11:43:31.626Z,3.50
2018-09-10T11:46:00.494Z,3.87
2018-09-10T11:48:29.429Z,3.45
2018-09-10T11:50:58.416Z,3.05
2018-09-10T11:53:27.261Z,3.60
2018-09-10T11:55:56.104Z,3.20
2018-09-10T11:58:24.993Z,3.40
2018-09-10T12:00:53.969Z,3.12
2018-09-10T12:03:22.934Z,3.67
2018-09-10T12:05:51.861Z,3.60
2018-09-10T12:08:20.924Z,3.47
2018-09-10T12:10:49.848Z,3.27
2018-09-10T12:13:18.668Z,3.30
2018-09-10T12:15:47.511Z,3.65
2018-09-10T12:18:16.411Z,3.27
2018-09-10T12:20:45.223Z,3.10
2018-09-10T12:23:14.076Z,3.90
2018-09-10T12:25:43.001Z,3.35
2018-09-10T12:28:11.844Z,3.47
2018-09-10T12:30:40.668Z,3.60
2018-09-10T12:33:09.620Z,2.98
2018-09-10T12:35:38.459Z,3.52
2018-09-10T12:38:07.353Z,3.02
2018-09-10T12:40:36.292Z,3.08
2018-09-10T12:43:05.149Z,3.25
2018-09-10T12:45:34.168Z,3.87
2018-09-10T12:48:03.092Z,3.10
2018-09-10T12:50:32.006Z,3.25
2018-09-10T12:53:00.840Z,3.42
2018-09-10T12:55:30.690Z,3.50
2018-09-10T12:57:59.625Z,3.05
2018-09-10T13:00:28.468Z,3.67
2018-09-10T13:02:57.461Z,2.98
2018-09-10T13:05:26.458Z,3.52
2018-09-10T13:07:55.379Z,3.20
2018-09-10T13:10:24.353Z,3.27
2018-09-10T13:12:53.428Z,2.70
2018-09-10T13:15:22.258Z,3.10
2018-09-10T13:17:51.119Z,3.27
2018-09-10T13:20:20.033Z,3.15
2018-09-10T13:22:48.860Z,3.00
2018-09-10T13:25:17.800Z,3.70
2018-09-10T13:27:46.614Z,3.70
2018-09-10T13:30:15.457Z,3.10
2018-09-10T13:32:44.369Z,3.25
2018-09-10T13:35:13.372Z,3.17
2018-09-10T13:37:42.204Z,2.90
2018-09-10T13:40:11.104Z,3.50
2018-09-10T13:42:39.988Z,3.02
2018-09-10T13:45:08.853Z,2.98
2018-09-10T13:47:37.700Z,3.22
2018-09-10T13:50:06.617Z,3.30
2018-09-10T13:52:35.642Z,3.02
2018-09-10T13:55:04.500Z,3.47
2018-09-10T13:57:33.470Z,3.52
2018-09-10T14:00:02.384Z,2.75
2018-09-10T14:02:31.276Z,3.33
2018-09-10T14:05:00.162Z,3.37
2018-09-10T14:07:29.071Z,3.10
2018-09-10T14:09:57.996Z,3.08
2018-09-10T14:12:26.942Z,3.10
2018-09-10T14:14:56.497Z,3.15
2018-09-10T14:17:25.349Z,2.77
2018-09-10T14:19:54.322Z,3.20
2018-09-10T14:22:23.177Z,2.77
2018-09-10T14:24:52.114Z,2.98
2018-09-10T14:27:20.997Z,3.08
2018-09-10T14:29:49.807Z,3.25
2018-09-10T14:32:20.193Z,3.22
2018-09-10T14:34:49.412Z,3.20
2018-09-10T14:37:18.471Z,3.05
2018-09-10T14:39:47.381Z,2.72
2018-09-10T14:42:16.401Z,2.90
2018-09-10T14:44:45.348Z,3.15
2018-09-10T14:47:14.221Z,2.77
2018-09-10T14:49:43.148Z,3.45
2018-09-10T14:52:11.992Z,2.95
2018-09-10T14:54:42.171Z,3.25
2018-09-10T14:57:11.103Z,2.92
2018-09-10T14:59:39.962Z,3.17
2018-09-10T15:02:08.836Z,3.25
2018-09-10T15:04:37.782Z,2.92
2018-09-10T15:07:06.721Z,2.85
2018-09-10T15:09:35.807Z,2.60
2018-09-10T15:12:04.685Z,3.15
2018-09-10T15:14:33.558Z,2.85
2018-09-10T15:17:02.565Z,2.83
2018-09-10T15:19:31.382Z,3.22
2018-09-10T15:22:00.393Z,3.02
2018-09-10T15:24:29.459Z,3.40
2018-09-10T15:26:58.349Z,3.27
2018-09-10T15:29:27.170Z,3.15
2018-09-10T15:31:56.040Z,3.02
2018-09-10T15:34:26.381Z,2.90
2018-09-10T15:36:55.194Z,3.00
2018-09-10T15:39:24.111Z,2.85
2018-09-10T15:41:53.002Z,3.70
2018-09-10T15:44:21.828Z,2.80
2018-09-10T15:46:50.716Z,2.92
2018-09-10T15:49:19.561Z,3.05
2018-09-10T15:51:48.383Z,3.15
2018-09-10T15:54:17.337Z,3.05
2018-09-10T15:56:46.379Z,3.08
2018-09-10T15:59:15.312Z,3.10
2018-09-10T16:01:44.250Z,3.35
2018-09-10T16:04:13.263Z,3.00
2018-09-10T16:06:42.098Z,3.20
2018-09-10T16:09:10.993Z,3.35
2018-09-10T16:11:39.895Z,3.47
2018-09-10T16:14:08.793Z,3.25
2018-09-10T16:16:37.712Z,3.33
2018-09-10T16:19:06.543Z,3.55
2018-09-10T16:21:35.377Z,2.98
2018-09-10T16:24:04.297Z,3.27
2018-09-10T16:26:33.280Z,3.60
2018-09-10T16:29:02.249Z,3.20
2018-09-10T16:31:31.096Z,3.47
2018-09-10T16:34:00.049Z,3.45
2018-09-10T16:36:28.839Z,3.60
2018-09-10T16:38:57.729Z,3.55
2018-09-10T16:41:26.609Z,3.37
2018-09-10T16:43:55.462Z,3.37
2018-09-10T16:46:24.300Z,3.67
2018-09-10T16:48:53.135Z,3.17
2018-09-10T16:51:22.620Z,3.70
2018-09-10T16:53:51.459Z,3.17
2018-09-10T16:56:20.295Z,3.05
2018-09-10T16:58:49.231Z,3.60
2018-09-10T17:01:18.062Z,3.20
2018-09-10T17:03:47.044Z,2.80
2018-09-10T17:06:15.984Z,3.08
2018-09-10T17:08:44.838Z,3.45
2018-09-10T17:11:13.669Z,3.40
2018-09-10T17:13:42.589Z,3.15
2018-09-10T17:16:11.462Z,3.00
2018-09-10T17:18:40.279Z,3.33
2018-09-10T17:21:09.149Z,3.00
2018-09-10T17:23:38.020Z,3.17
2018-09-10T17:26:06.858Z,2.85
2018-09-10T17:30:22.180Z,3.33
2018-09-10T17:32:52.029Z,3.00
2018-09-10T17:35:22.556Z,2.85
2018-09-10T17:37:53.100Z,3.50
2018-09-10T17:40:21.905Z,3.10
2018-09-10T17:42:50.753Z,3.08
2018-09-10T17:45:19.903Z,3.22
2018-09-10T17:47:49.915Z,30.35
2018-09-10T17:50:18.760Z,4.95
2018-09-10T17:55:32.316Z,3.45
2018-09-10T17:58:01.263Z,3.70
2018-09-10T18:00:30.129Z,4.23
2018-09-10T18:03:00.004Z,4.40
2018-09-10T18:05:28.920Z,7.27
2018-09-10T18:07:57.767Z,7.90
2018-09-10T18:10:26.854Z,8.47
2018-09-10T18:12:55.728Z,10.30
2018-09-10T18:15:24.683Z,13.27
2018-09-10T18:17:53.552Z,15.40
2018-09-10T18:20:22.622Z,13.77
2018-09-10T18:22:52.394Z,14.00
2018-09-10T18:25:21.244Z,14.37
2018-09-10T18:27:50.269Z,13.50
2018-09-10T18:30:19.303Z,12.63
2018-09-10T18:32:51.847Z,11.93
2018-09-10T18:35:20.807Z,9.90
2018-09-10T18:37:50.285Z,8.67
2018-09-10T18:40:19.422Z,9.63
2018-09-10T18:42:48.349Z,8.30
2018-09-10T18:45:17.402Z,8.93
2018-09-10T18:47:46.889Z,8.63
2018-09-10T18:50:15.774Z,9.07
2018-09-10T18:52:44.778Z,8.83
2018-09-10T18:55:13.802Z,8.10
2018-09-10T18:57:42.699Z,8.30
2018-09-10T19:00:11.648Z,8.43
2018-09-10T19:02:40.616Z,7.80
2018-09-10T19:05:09.508Z,8.10
2018-09-10T19:07:38.433Z,8.47
2018-09-10T19:10:07.986Z,8.20
2018-09-10T19:12:36.840Z,8.67
2018-09-10T19:15:06.267Z,8.63
2018-09-10T19:17:35.243Z,7.97
2018-09-10T19:20:04.325Z,8.20
2018-09-10T19:22:33.152Z,8.10
2018-09-10T19:25:02.025Z,8.73
2018-09-10T19:27:30.934Z,8.83
2018-09-10T19:29:59.775Z,9.50
2018-09-10T19:32:28.613Z,9.90
2018-09-10T19:34:58.536Z,13.63
2018-09-10T19:37:27.476Z,13.83
2018-09-10T19:39:56.286Z,11.23
2018-09-10T19:42:25.270Z,8.90
2018-09-10T19:44:54.465Z,8.63
2018-09-10T19:47:23.319Z,8.70
2018-09-10T19:49:52.262Z,8.30
2018-09-10T19:52:21.252Z,8.33
2018-09-10T19:54:50.150Z,8.97
2018-09-10T19:57:19.054Z,9.03
2018-09-10T19:59:48.072Z,9.20
2018-09-10T20:02:18.067Z,8.93
2018-09-10T20:04:46.943Z,8.20
2018-09-10T20:07:15.865Z,8.60
2018-09-10T20:09:44.831Z,9.50
2018-09-10T20:12:13.744Z,8.43
2018-09-10T20:14:42.693Z,9.10
2018-09-10T20:17:12.003Z,8.40
2018-09-10T20:19:41.145Z,8.60
2018-09-10T20:22:14.067Z,8.97
2018-09-10T20:24:42.942Z,8.90
2018-09-10T20:27:11.803Z,8.47
2018-09-10T20:29:40.724Z,9.10
2018-09-10T20:32:10.051Z,9.10
2018-09-10T20:34:38.879Z,9.47
2018-09-10T20:37:07.779Z,8.77
2018-09-10T20:39:36.668Z,9.37
2018-09-10T20:42:05.608Z,10.10
2018-09-10T20:44:34.494Z,9.93
2018-09-10T20:47:04.311Z,9.53
2018-09-10T20:49:33.252Z,9.53
2018-09-10T20:52:02.724Z,9.33
2018-09-10T20:54:31.589Z,8.80
2018-09-10T20:57:00.461Z,9.23
2018-09-10T20:59:29.367Z,9.30
2018-09-10T21:01:58.219Z,10.70
2018-09-10T21:04:27.108Z,9.80
2018-09-10T21:06:56.084Z,9.77
2018-09-10T21:09:25.122Z,9.37
2018-09-10T21:11:54.208Z,9.73
2018-09-10T21:14:23.171Z,9.57
2018-09-10T21:16:52.162Z,9.90
2018-09-10T21:19:21.212Z,10.03
2018-09-10T21:21:50.251Z,9.63
2018-09-10T21:24:19.189Z,9.97
2018-09-10T21:26:48.045Z,9.87
2018-09-10T21:29:16.991Z,10.70
2018-09-10T21:31:45.828Z,11.80
2018-09-10T21:34:14.808Z,10.80
2018-09-10T21:36:43.779Z,11.33
2018-09-10T21:39:12.661Z,10.60
2018-09-10T21:41:41.480Z,10.40
2018-09-10T21:44:10.816Z,10.50
2018-09-10T21:46:39.685Z,10.30
2018-09-10T21:49:08.567Z,10.30
2018-09-10T21:51:37.455Z,10.80
2018-09-10T21:54:06.287Z,11.23
2018-09-10T21:56:35.163Z,10.47
2018-09-10T21:59:04.062Z,10.50
2018-09-10T22:01:32.939Z,11.30
2018-09-10T22:04:01.768Z,10.30
2018-09-10T22:06:30.717Z,10.37
2018-09-10T22:08:59.612Z,10.87
2018-09-10T22:11:28.551Z,10.43
2018-09-10T22:13:57.470Z,11.37
2018-09-10T22:16:26.314Z,10.03
2018-09-10T22:18:55.164Z,11.17
2018-09-10T22:21:24.056Z,11.10
2018-09-10T22:23:52.914Z,11.13
2018-09-10T22:26:21.792Z,10.50
2018-09-10T22:28:50.933Z,10.53
2018-09-10T22:31:19.800Z,11.33
2018-09-10T22:33:48.674Z,12.00
2018-09-10T22:36:17.584Z,10.77
2018-09-10T22:38:46.456Z,11.60
2018-09-10T22:41:15.319Z,11.10
2018-09-10T22:43:44.362Z,10.90
2018-09-10T22:46:13.203Z,10.90
2018-09-10T22:48:42.114Z,11.43
2018-09-10T22:51:11.125Z,12.23
2018-09-10T22:53:39.982Z,11.90
2018-09-10T22:56:08.865Z,12.20
2018-09-10T22:58:37.751Z,11.97
2018-09-10T23:01:06.637Z,12.23
2018-09-10T23:03:35.519Z,11.93
2018-09-10T23:06:04.406Z,12.97
2018-09-10T23:08:33.313Z,11.33
2018-09-10T23:11:02.151Z,10.93
2018-09-10T23:13:31.104Z,11.90
2018-09-10T23:15:59.961Z,12.10
2018-09-10T23:18:28.808Z,11.70
2018-09-10T23:20:57.804Z,12.37
2018-09-10T23:23:26.674Z,12.47
2018-09-10T23:25:55.532Z,11.60
2018-09-10T23:28:24.496Z,11.53
2018-09-10T23:30:53.591Z,11.53
2018-09-10T23:33:22.436Z,11.33
2018-09-10T23:35:51.372Z,11.07
2018-09-10T23:38:20.227Z,13.07
2018-09-10T23:40:49.057Z,12.70
2018-09-10T23:43:17.949Z,11.73
2018-09-10T23:45:46.813Z,12.17
2018-09-10T23:48:15.690Z,11.23
2018-09-10T23:50:44.612Z,12.20
2018-09-10T23:53:13.459Z,11.80
2018-09-10T23:55:42.311Z,11.90
2018-09-10T23:58:11.214Z,10.90
